• Join FlightAware (Why Join?)
  • Login
  • US Flag 
06:11AM EST


 

Airport Tracker/Info


-or-


 

Live Flight TrackerFlight Track Log ✈ SEJ1022 ✈ 09-Mar-2014 ✈ VOCB / CJB - VOHS / HYD

Flight Track Log - Related Links

Times and Time Zones

All times are in EDT time to prevent confusion due to time zone crossing. See the SEJ1022 flight status page for this flight to view local times or setup timezone preferences in your user account.

Time Position Orientation Groundspeed Altitude Reporting Facility
EDT Latitude Longitude Course Direction KTS MPH feet Rate Location/Type
11:04AM 11.6208 77.1722 12° North  Level Estimated
11:05AM 11.6863 77.1865 12° North  Level Estimated
11:06AM 11.7518 77.2008 12° North  Level Estimated
11:07AM 11.8173 77.2151 12° North  Level Estimated
11:08AM 11.8827 77.2294 12° North  Level Estimated
11:09AM 11.9482 77.2437 12° North  Level Estimated
11:10AM 12.0137 77.2580 12° North  Level Estimated
11:11AM 12.0792 77.2724 12° North  Level Estimated
11:12AM 12.1447 77.2867 12° North  Level Estimated
11:13AM 12.2101 77.3010 12° North  Level Estimated
11:14AM 12.2756 77.3154 12° North  Level Estimated
11:15AM 12.3411 77.3298 12° North  Level Estimated
11:16AM 12.4066 77.3441 12° North  Level Estimated
11:17AM 12.4720 77.3585 12° North  Level Estimated
11:18AM 12.5375 77.3728 12° North  Level Estimated
11:19AM 12.6030 77.3872 12° North  Level Estimated
11:20AM 12.6685 77.4016 12° North  Level Estimated
11:21AM 12.7339 77.4160 12° North  Level Estimated
11:22AM 12.7994 77.4304 12° North  Level Estimated
11:23AM 12.8649 77.4448 12° North  Level Estimated
11:24AM 12.9304 77.4593 12° North  Level Estimated
11:25AM 12.9958 77.4737 12° North  Level Estimated
11:26AM 13.0613 77.4881 12° North  Level Estimated
11:27AM 13.1267 77.5026 12° North  Level Estimated
11:28AM 13.1922 77.5170 12° North  Level Estimated
11:29AM 13.2577 77.5315 12° North  Level Estimated
11:30AM 13.3231 77.5460 12° North  Level Estimated
11:31AM 13.3886 77.5604 12° North  Level Estimated
11:32AM 13.4541 77.5749 12° North  Level Estimated
11:33AM 13.5195 77.5894 12° North  Level Estimated
11:34AM 13.5850 77.6039 12° North  Level Estimated
11:35AM 13.6505 77.6184 12° North  Level Estimated
11:36AM 13.7159 77.6329 12° North  Level Estimated
11:37AM 13.7814 77.6474 12° North  Level Estimated
11:38AM 13.8468 77.6620 12° North  Level Estimated
11:39AM 13.9123 77.6765 12° North  Level Estimated
11:40AM 13.9777 77.6911 12° North  Level Estimated
11:41AM 14.0432 77.7056 12° North  Level Estimated
11:42AM 14.1087 77.7202 12° North  Level Estimated
11:43AM 14.1741 77.7347 12° North  Level Estimated
11:44AM 14.2396 77.7493 12° North  Level Estimated
11:45AM 14.3050 77.7639 12° North  Level Estimated
11:46AM 14.3705 77.7785 12° North  Level Estimated
11:47AM 14.4359 77.7931 12° North  Level Estimated
11:48AM 14.5014 77.8077 12° North  Level Estimated
11:49AM 14.5668 77.8224 12° North  Level Estimated
11:50AM 14.6323 77.8370 12° North  Level Estimated
11:51AM 14.6977 77.8516 12° North  Level Estimated
11:52AM 14.7632 77.8663 12° North  Level Estimated
11:53AM 14.8286 77.8809 12° North  Level Estimated
11:54AM 14.8940 77.8956 12° North  Level Estimated
11:55AM 14.9595 77.9103 12° North  Level Estimated
11:56AM 15.0249 77.9250 12° North  Level Estimated
11:57AM 15.0904 77.9397 12° North  Level Estimated
11:58AM 15.1558 77.9544 12° North  Level Estimated
11:59AM 15.2213 77.9691 12° North  Level Estimated
12:00PM 15.2867 77.9838 12° North  Level Estimated
12:01PM 15.3521 77.9985 12° North  Level Estimated
12:02PM 15.4176 78.0133 12° North  Level Estimated
12:03PM 15.4830 78.0280 12° North  Level Estimated
12:04PM 15.5484 78.0428 12° North  Level Estimated
12:05PM 15.6139 78.0575 12° North  Level Estimated
12:06PM 15.6793 78.0723 12° North  Level Estimated
12:07PM 15.7447 78.0871 12° North  Level Estimated
12:08PM 15.8102 78.1019 12° North  Level Estimated
12:09PM 15.8756 78.1167 12° North  Level Estimated
12:10PM 15.9410 78.1315 12° North  Level Estimated
12:11PM 16.0065 78.1464 12° North  Level Estimated
12:12PM 16.0719 78.1612 12° North  Level Estimated
12:13PM 16.1373 78.1760 12° North  Level Estimated
12:14PM 16.2027 78.1909 12° North  Level Estimated
12:15PM 16.2682 78.2058 12° North  Level Estimated
12:16PM 16.3336 78.2206 12° North  Level Estimated
12:17PM 16.3990 78.2355 12° North  Level Estimated
12:18PM 16.4644 78.2504 12° North  Level Estimated
12:19PM 16.5298 78.2653 12° North  Level Estimated
12:20PM 16.5952 78.2802 12° North  Level Estimated
12:21PM 16.6607 78.2952 12° North  Level Estimated
12:22PM 16.7261 78.3101 12° North  Level Estimated
12:23PM 16.7915 78.3250 12° North  Level Estimated
12:24PM 16.8569 78.3400 12° North  Level Estimated
12:25PM 16.9223 78.3549 12° North  Level Estimated
12:26PM 16.9877 78.3699 12° North  Level Estimated
12:27PM 17.0532 78.3849 12° North  Level Estimated
12:28PM 17.1186 78.3999 12° North  Level Estimated
12:29PM 17.1840 78.4149 12° North  Level Estimated
12:30PM 17.2494 78.4299 12° North  Level Estimated
12:31PM 17.2540 78.4310 12° North  Level Estimated
12:32PM 17.2540 78.4310 North  Level Estimated
12:33PM 17.2540 78.4310 North  Level Estimated
12:34PM 17.2540 78.4310 North  Level Estimated
12:35PM 17.2540 78.4310 North  Level Estimated
12:36PM 17.2540 78.4310 North  Level Estimated
12:37PM 17.2540 78.4310 North  Level Estimated
12:38PM 17.2540 78.4310 North  Level Estimated
12:39PM 17.2540 78.4310 North  Level Estimated
12:40PM 17.2540 78.4310 North  Level Estimated
12:41PM 17.2540 78.4310 North  Level Estimated
12:42PM 17.2540 78.4310 North  Level Estimated
12:43PM 17.2540 78.4310 North  Level Estimated
12:44PM 17.2540 78.4310 North  Level Estimated
12:45PM 17.2540 78.4310 North  Level Estimated
12:46PM 17.2540 78.4310 North  Level Estimated